sensor_id;sensor_type;location;lat;lon;timestamp;P1;durP1;ratioP1;P2;durP2;ratioP2
55220;SDS011;41089;51.448;6.604;2024-03-25T00:05:58;25.35;;;11.48;;
55220;SDS011;41089;51.448;6.604;2024-03-25T00:11:58;24.92;;;6.80;;
55220;SDS011;41089;51.448;6.604;2024-03-25T00:18:00;25.70;;;5.97;;
55220;SDS011;41089;51.448;6.604;2024-03-25T00:24:01;23.55;;;5.57;;
55220;SDS011;41089;51.448;6.604;2024-03-25T00:30:02;19.88;;;4.25;;
55220;SDS011;41089;51.448;6.604;2024-03-25T00:36:03;26.20;;;4.80;;
55220;SDS011;41089;51.448;6.604;2024-03-25T00:42:04;18.85;;;4.25;;
55220;SDS011;41089;51.448;6.604;2024-03-25T00:48:06;20.17;;;4.80;;
55220;SDS011;41089;51.448;6.604;2024-03-25T00:54:06;19.27;;;3.78;;
55220;SDS011;41089;51.448;6.604;2024-03-25T01:00:07;17.87;;;3.77;;
55220;SDS011;41089;51.448;6.604;2024-03-25T01:06:08;28.80;;;6.53;;
55220;SDS011;41089;51.448;6.604;2024-03-25T01:12:09;20.95;;;4.50;;
55220;SDS011;41089;51.448;6.604;2024-03-25T01:18:09;19.42;;;4.60;;
55220;SDS011;41089;51.448;6.604;2024-03-25T01:24:10;19.67;;;3.90;;
55220;SDS011;41089;51.448;6.604;2024-03-25T01:30:10;21.95;;;5.28;;
55220;SDS011;41089;51.448;6.604;2024-03-25T01:36:11;22.30;;;5.15;;
55220;SDS011;41089;51.448;6.604;2024-03-25T01:42:17;21.25;;;4.38;;
55220;SDS011;41089;51.448;6.604;2024-03-25T01:48:17;17.60;;;5.97;;
55220;SDS011;41089;51.448;6.604;2024-03-25T01:54:18;17.20;;;4.93;;
55220;SDS011;41089;51.448;6.604;2024-03-25T02:00:19;23.75;;;6.22;;
55220;SDS011;41089;51.448;6.604;2024-03-25T02:06:20;15.43;;;3.45;;
55220;SDS011;41089;51.448;6.604;2024-03-25T02:12:21;16.05;;;4.13;;
55220;SDS011;41089;51.448;6.604;2024-03-25T02:18:22;32.17;;;4.28;;
55220;SDS011;41089;51.448;6.604;2024-03-25T02:24:23;19.48;;;4.18;;
55220;SDS011;41089;51.448;6.604;2024-03-25T02:30:27;19.60;;;4.75;;
55220;SDS011;41089;51.448;6.604;2024-03-25T02:36:27;23.13;;;4.95;;
55220;SDS011;41089;51.448;6.604;2024-03-25T02:42:28;21.43;;;4.33;;
55220;SDS011;41089;51.448;6.604;2024-03-25T02:48:29;29.73;;;4.50;;
55220;SDS011;41089;51.448;6.604;2024-03-25T02:54:29;19.20;;;5.20;;
55220;SDS011;41089;51.448;6.604;2024-03-25T03:00:29;23.83;;;5.45;;
55220;SDS011;41089;51.448;6.604;2024-03-25T03:06:33;24.15;;;6.13;;
55220;SDS011;41089;51.448;6.604;2024-03-25T03:12:33;21.37;;;6.53;;
55220;SDS011;41089;51.448;6.604;2024-03-25T03:18:34;17.70;;;5.23;;
55220;SDS011;41089;51.448;6.604;2024-03-25T03:24:35;22.85;;;5.72;;
55220;SDS011;41089;51.448;6.604;2024-03-25T03:30:35;19.03;;;5.53;;
55220;SDS011;41089;51.448;6.604;2024-03-25T03:36:35;17.60;;;5.85;;
55220;SDS011;41089;51.448;6.604;2024-03-25T03:42:36;19.67;;;5.80;;
55220;SDS011;41089;51.448;6.604;2024-03-25T03:48:36;22.92;;;6.72;;
55220;SDS011;41089;51.448;6.604;2024-03-25T03:54:38;22.77;;;5.70;;
55220;SDS011;41089;51.448;6.604;2024-03-25T04:00:39;19.67;;;5.72;;
55220;SDS011;41089;51.448;6.604;2024-03-25T04:06:40;17.73;;;5.67;;
55220;SDS011;41089;51.448;6.604;2024-03-25T04:12:40;25.65;;;6.47;;
55220;SDS011;41089;51.448;6.604;2024-03-25T04:18:41;19.90;;;6.00;;
55220;SDS011;41089;51.448;6.604;2024-03-25T04:24:42;19.45;;;6.40;;
55220;SDS011;41089;51.448;6.604;2024-03-25T04:30:43;21.02;;;6.05;;
55220;SDS011;41089;51.448;6.604;2024-03-25T04:36:44;20.10;;;5.93;;
55220;SDS011;41089;51.448;6.604;2024-03-25T04:42:44;23.00;;;5.50;;
55220;SDS011;41089;51.448;6.604;2024-03-25T04:48:45;17.63;;;5.45;;
55220;SDS011;41089;51.448;6.604;2024-03-25T04:54:48;14.43;;;4.90;;
55220;SDS011;41089;51.448;6.604;2024-03-25T05:00:48;25.25;;;6.05;;
55220;SDS011;41089;51.448;6.604;2024-03-25T05:06:49;21.88;;;6.10;;
55220;SDS011;41089;51.448;6.604;2024-03-25T05:12:49;29.67;;;8.07;;
55220;SDS011;41089;51.448;6.604;2024-03-25T05:18:49;19.43;;;5.73;;
55220;SDS011;41089;51.448;6.604;2024-03-25T05:24:50;17.75;;;6.45;;
55220;SDS011;41089;51.448;6.604;2024-03-25T05:30:50;18.13;;;6.57;;
55220;SDS011;41089;51.448;6.604;2024-03-25T05:36:51;18.70;;;6.25;;
55220;SDS011;41089;51.448;6.604;2024-03-25T05:42:53;19.85;;;7.60;;
55220;SDS011;41089;51.448;6.604;2024-03-25T05:48:53;20.48;;;7.80;;
55220;SDS011;41089;51.448;6.604;2024-03-25T05:54:53;21.93;;;6.77;;
55220;SDS011;41089;51.448;6.604;2024-03-25T06:00:54;17.17;;;6.67;;
55220;SDS011;41089;51.448;6.604;2024-03-25T06:06:54;17.37;;;5.97;;
55220;SDS011;41089;51.448;6.604;2024-03-25T06:12:55;22.25;;;7.38;;
55220;SDS011;41089;51.448;6.604;2024-03-25T06:19:02;25.33;;;6.87;;
55220;SDS011;41089;51.448;6.604;2024-03-25T06:25:03;22.13;;;7.22;;
55220;SDS011;41089;51.448;6.604;2024-03-25T06:31:03;26.17;;;8.13;;
55220;SDS011;41089;51.448;6.604;2024-03-25T06:37:22;22.92;;;7.10;;
55220;SDS011;41089;51.448;6.604;2024-03-25T06:43:23;15.40;;;6.82;;
55220;SDS011;41089;51.448;6.604;2024-03-25T06:49:24;20.02;;;7.30;;
55220;SDS011;41089;51.448;6.604;2024-03-25T06:55:24;23.20;;;7.78;;
55220;SDS011;41089;51.448;6.604;2024-03-25T07:01:27;23.15;;;7.90;;
55220;SDS011;41089;51.448;6.604;2024-03-25T07:07:29;22.83;;;8.30;;
55220;SDS011;41089;51.448;6.604;2024-03-25T07:13:30;18.25;;;7.60;;
55220;SDS011;41089;51.448;6.604;2024-03-25T07:19:30;19.88;;;8.23;;
55220;SDS011;41089;51.448;6.604;2024-03-25T07:25:31;18.70;;;7.27;;
55220;SDS011;41089;51.448;6.604;2024-03-25T07:31:31;23.65;;;7.15;;
55220;SDS011;41089;51.448;6.604;2024-03-25T07:37:32;19.90;;;7.25;;
55220;SDS011;41089;51.448;6.604;2024-03-25T07:43:32;22.02;;;8.20;;
55220;SDS011;41089;51.448;6.604;2024-03-25T07:49:32;21.70;;;7.30;;
55220;SDS011;41089;51.448;6.604;2024-03-25T07:55:34;26.58;;;7.78;;
55220;SDS011;41089;51.448;6.604;2024-03-25T08:01:34;21.00;;;8.32;;
55220;SDS011;41089;51.448;6.604;2024-03-25T08:07:34;16.90;;;6.70;;
55220;SDS011;41089;51.448;6.604;2024-03-25T08:13:35;23.25;;;6.40;;
55220;SDS011;41089;51.448;6.604;2024-03-25T08:19:35;20.40;;;6.93;;
55220;SDS011;41089;51.448;6.604;2024-03-25T08:25:35;15.48;;;6.03;;
55220;SDS011;41089;51.448;6.604;2024-03-25T08:31:36;24.08;;;7.50;;
55220;SDS011;41089;51.448;6.604;2024-03-25T08:37:37;18.67;;;5.80;;
55220;SDS011;41089;51.448;6.604;2024-03-25T08:43:38;23.27;;;6.55;;
55220;SDS011;41089;51.448;6.604;2024-03-25T08:49:39;22.85;;;5.63;;
55220;SDS011;41089;51.448;6.604;2024-03-25T08:55:49;20.42;;;6.32;;
55220;SDS011;41089;51.448;6.604;2024-03-25T09:01:49;20.90;;;5.27;;
55220;SDS011;41089;51.448;6.604;2024-03-25T09:07:53;13.73;;;4.10;;
55220;SDS011;41089;51.448;6.604;2024-03-25T09:13:53;13.60;;;4.13;;
55220;SDS011;41089;51.448;6.604;2024-03-25T09:19:54;14.50;;;4.22;;
55220;SDS011;41089;51.448;6.604;2024-03-25T09:25:54;15.18;;;4.53;;
55220;SDS011;41089;51.448;6.604;2024-03-25T09:31:55;17.03;;;3.50;;
55220;SDS011;41089;51.448;6.604;2024-03-25T09:37:55;12.83;;;3.20;;
55220;SDS011;41089;51.448;6.604;2024-03-25T09:43:55;12.02;;;2.85;;
55220;SDS011;41089;51.448;6.604;2024-03-25T09:49:57;9.00;;;2.38;;
55220;SDS011;41089;51.448;6.604;2024-03-25T09:55:59;12.82;;;2.90;;
55220;SDS011;41089;51.448;6.604;2024-03-25T10:02:00;12.00;;;3.25;;
55220;SDS011;41089;51.448;6.604;2024-03-25T10:08:01;16.23;;;5.50;;
55220;SDS011;41089;51.448;6.604;2024-03-25T10:14:02;9.68;;;2.72;;
55220;SDS011;41089;51.448;6.604;2024-03-25T10:20:03;7.22;;;2.85;;
55220;SDS011;41089;51.448;6.604;2024-03-25T10:26:06;9.30;;;3.22;;
55220;SDS011;41089;51.448;6.604;2024-03-25T10:32:07;13.15;;;3.92;;
55220;SDS011;41089;51.448;6.604;2024-03-25T10:38:08;10.93;;;3.00;;
55220;SDS011;41089;51.448;6.604;2024-03-25T10:44:10;13.85;;;3.92;;
55220;SDS011;41089;51.448;6.604;2024-03-25T10:50:12;11.40;;;3.30;;
55220;SDS011;41089;51.448;6.604;2024-03-25T10:56:16;16.80;;;3.72;;
55220;SDS011;41089;51.448;6.604;2024-03-25T11:02:17;13.27;;;4.28;;
55220;SDS011;41089;51.448;6.604;2024-03-25T11:08:17;12.20;;;4.18;;
55220;SDS011;41089;51.448;6.604;2024-03-25T11:14:18;9.53;;;3.47;;
55220;SDS011;41089;51.448;6.604;2024-03-25T11:20:19;13.73;;;4.57;;
55220;SDS011;41089;51.448;6.604;2024-03-25T11:26:24;13.03;;;4.83;;
55220;SDS011;41089;51.448;6.604;2024-03-25T11:32:28;8.35;;;4.05;;
55220;SDS011;41089;51.448;6.604;2024-03-25T11:38:29;9.82;;;3.90;;
55220;SDS011;41089;51.448;6.604;2024-03-25T11:44:29;14.90;;;4.13;;
55220;SDS011;41089;51.448;6.604;2024-03-25T11:50:30;9.80;;;4.72;;
55220;SDS011;41089;51.448;6.604;2024-03-25T11:56:31;12.07;;;4.50;;
55220;SDS011;41089;51.448;6.604;2024-03-25T12:02:31;8.52;;;3.90;;
55220;SDS011;41089;51.448;6.604;2024-03-25T12:08:32;11.40;;;4.25;;
55220;SDS011;41089;51.448;6.604;2024-03-25T12:14:36;11.48;;;4.18;;
55220;SDS011;41089;51.448;6.604;2024-03-25T12:20:37;11.20;;;4.82;;
55220;SDS011;41089;51.448;6.604;2024-03-25T12:26:39;9.55;;;4.38;;
55220;SDS011;41089;51.448;6.604;2024-03-25T12:32:40;10.55;;;4.28;;
55220;SDS011;41089;51.448;6.604;2024-03-25T12:38:44;10.38;;;4.45;;
55220;SDS011;41089;51.448;6.604;2024-03-25T12:44:54;10.80;;;3.80;;
55220;SDS011;41089;51.448;6.604;2024-03-25T12:50:55;13.83;;;5.17;;
55220;SDS011;41089;51.448;6.604;2024-03-25T12:56:55;8.93;;;3.90;;
55220;SDS011;41089;51.448;6.604;2024-03-25T13:02:55;10.90;;;4.73;;
55220;SDS011;41089;51.448;6.604;2024-03-25T13:08:56;6.73;;;3.97;;
55220;SDS011;41089;51.448;6.604;2024-03-25T13:14:56;6.77;;;4.63;;
55220;SDS011;41089;51.448;6.604;2024-03-25T13:20:58;7.63;;;3.65;;
55220;SDS011;41089;51.448;6.604;2024-03-25T13:26:59;7.85;;;4.32;;
55220;SDS011;41089;51.448;6.604;2024-03-25T13:33:00;9.87;;;4.93;;
55220;SDS011;41089;51.448;6.604;2024-03-25T13:39:00;9.02;;;4.85;;
55220;SDS011;41089;51.448;6.604;2024-03-25T13:45:00;9.43;;;4.50;;
55220;SDS011;41089;51.448;6.604;2024-03-25T13:57:01;10.65;;;4.68;;
55220;SDS011;41089;51.448;6.604;2024-03-25T14:03:02;10.40;;;4.80;;
55220;SDS011;41089;51.448;6.604;2024-03-25T14:09:03;10.30;;;4.53;;
55220;SDS011;41089;51.448;6.604;2024-03-25T14:15:10;9.43;;;4.28;;
55220;SDS011;41089;51.448;6.604;2024-03-25T14:21:11;9.35;;;4.60;;
55220;SDS011;41089;51.448;6.604;2024-03-25T14:27:12;8.70;;;3.23;;
55220;SDS011;41089;51.448;6.604;2024-03-25T14:33:12;8.50;;;3.40;;
55220;SDS011;41089;51.448;6.604;2024-03-25T14:39:13;8.45;;;3.90;;
55220;SDS011;41089;51.448;6.604;2024-03-25T14:45:14;6.70;;;2.38;;
55220;SDS011;41089;51.448;6.604;2024-03-25T14:51:14;5.82;;;2.30;;
55220;SDS011;41089;51.448;6.604;2024-03-25T14:57:15;6.90;;;2.90;;
55220;SDS011;41089;51.448;6.604;2024-03-25T15:03:15;5.75;;;2.10;;
55220;SDS011;41089;51.448;6.604;2024-03-25T15:09:15;6.30;;;2.58;;
55220;SDS011;41089;51.448;6.604;2024-03-25T15:15:17;6.53;;;2.37;;
55220;SDS011;41089;51.448;6.604;2024-03-25T15:21:18;6.20;;;2.58;;
55220;SDS011;41089;51.448;6.604;2024-03-25T15:27:18;5.63;;;2.58;;
55220;SDS011;41089;51.448;6.604;2024-03-25T15:33:18;7.82;;;2.75;;
55220;SDS011;41089;51.448;6.604;2024-03-25T15:39:19;7.60;;;2.90;;
55220;SDS011;41089;51.448;6.604;2024-03-25T15:45:19;5.70;;;2.40;;
55220;SDS011;41089;51.448;6.604;2024-03-25T15:57:20;4.78;;;2.20;;
55220;SDS011;41089;51.448;6.604;2024-03-25T16:09:21;9.02;;;2.50;;
55220;SDS011;41089;51.448;6.604;2024-03-25T16:15:21;5.22;;;2.13;;
55220;SDS011;41089;51.448;6.604;2024-03-25T16:21:23;6.07;;;1.90;;
55220;SDS011;41089;51.448;6.604;2024-03-25T16:27:24;7.28;;;2.10;;
55220;SDS011;41089;51.448;6.604;2024-03-25T16:33:24;4.93;;;1.83;;
55220;SDS011;41089;51.448;6.604;2024-03-25T16:39:25;6.55;;;1.83;;
55220;SDS011;41089;51.448;6.604;2024-03-25T16:45:25;4.45;;;1.85;;
55220;SDS011;41089;51.448;6.604;2024-03-25T16:51:26;7.82;;;2.10;;
55220;SDS011;41089;51.448;6.604;2024-03-25T16:57:26;6.68;;;1.92;;
55220;SDS011;41089;51.448;6.604;2024-03-25T17:03:26;6.77;;;1.83;;
55220;SDS011;41089;51.448;6.604;2024-03-25T17:15:27;5.28;;;2.00;;
55220;SDS011;41089;51.448;6.604;2024-03-25T17:21:28;12.80;;;2.87;;
55220;SDS011;41089;51.448;6.604;2024-03-25T17:27:28;7.00;;;2.50;;
55220;SDS011;41089;51.448;6.604;2024-03-25T17:33:30;8.65;;;2.45;;
55220;SDS011;41089;51.448;6.604;2024-03-25T17:45:30;8.38;;;2.17;;
55220;SDS011;41089;51.448;6.604;2024-03-25T17:51:31;4.43;;;1.60;;
55220;SDS011;41089;51.448;6.604;2024-03-25T17:57:31;6.22;;;2.05;;
55220;SDS011;41089;51.448;6.604;2024-03-25T18:03:32;5.95;;;1.90;;
55220;SDS011;41089;51.448;6.604;2024-03-25T18:09:32;7.03;;;1.90;;
55220;SDS011;41089;51.448;6.604;2024-03-25T18:15:33;8.70;;;2.15;;
55220;SDS011;41089;51.448;6.604;2024-03-25T18:21:34;7.13;;;1.92;;
55220;SDS011;41089;51.448;6.604;2024-03-25T18:27:35;9.98;;;2.10;;
55220;SDS011;41089;51.448;6.604;2024-03-25T18:33:36;6.60;;;2.20;;
55220;SDS011;41089;51.448;6.604;2024-03-25T18:39:36;9.55;;;3.00;;
55220;SDS011;41089;51.448;6.604;2024-03-25T18:45:36;9.07;;;4.23;;
55220;SDS011;41089;51.448;6.604;2024-03-25T18:51:37;9.05;;;3.92;;
55220;SDS011;41089;51.448;6.604;2024-03-25T18:57:37;8.63;;;3.53;;
55220;SDS011;41089;51.448;6.604;2024-03-25T19:03:38;9.60;;;3.08;;
55220;SDS011;41089;51.448;6.604;2024-03-25T19:09:38;8.80;;;2.70;;
55220;SDS011;41089;51.448;6.604;2024-03-25T19:15:39;4.67;;;2.20;;
55220;SDS011;41089;51.448;6.604;2024-03-25T19:21:39;7.90;;;1.97;;
55220;SDS011;41089;51.448;6.604;2024-03-25T19:27:40;7.00;;;2.47;;
55220;SDS011;41089;51.448;6.604;2024-03-25T19:33:40;5.23;;;2.50;;
55220;SDS011;41089;51.448;6.604;2024-03-25T19:39:42;7.18;;;2.70;;
55220;SDS011;41089;51.448;6.604;2024-03-25T19:45:46;7.05;;;2.33;;
55220;SDS011;41089;51.448;6.604;2024-03-25T19:51:47;5.60;;;2.40;;
55220;SDS011;41089;51.448;6.604;2024-03-25T19:57:48;7.75;;;2.88;;
55220;SDS011;41089;51.448;6.604;2024-03-25T20:03:49;4.75;;;2.22;;
55220;SDS011;41089;51.448;6.604;2024-03-25T20:09:51;7.18;;;2.70;;
55220;SDS011;41089;51.448;6.604;2024-03-25T20:15:52;9.50;;;2.93;;
55220;SDS011;41089;51.448;6.604;2024-03-25T20:21:52;4.95;;;2.05;;
55220;SDS011;41089;51.448;6.604;2024-03-25T20:27:52;5.70;;;2.22;;
55220;SDS011;41089;51.448;6.604;2024-03-25T20:33:53;8.55;;;3.17;;
55220;SDS011;41089;51.448;6.604;2024-03-25T20:39:54;9.55;;;2.95;;
55220;SDS011;41089;51.448;6.604;2024-03-25T20:45:54;7.00;;;2.50;;
55220;SDS011;41089;51.448;6.604;2024-03-25T20:51:54;11.30;;;3.55;;
55220;SDS011;41089;51.448;6.604;2024-03-25T20:57:55;8.73;;;3.53;;
55220;SDS011;41089;51.448;6.604;2024-03-25T21:03:56;6.80;;;2.95;;
55220;SDS011;41089;51.448;6.604;2024-03-25T21:09:57;10.23;;;2.88;;
55220;SDS011;41089;51.448;6.604;2024-03-25T21:15:58;8.65;;;3.03;;
55220;SDS011;41089;51.448;6.604;2024-03-25T21:21:59;8.15;;;3.35;;
55220;SDS011;41089;51.448;6.604;2024-03-25T21:28:00;8.40;;;3.67;;
55220;SDS011;41089;51.448;6.604;2024-03-25T21:34:00;11.95;;;3.42;;
55220;SDS011;41089;51.448;6.604;2024-03-25T21:40:03;9.77;;;3.07;;
55220;SDS011;41089;51.448;6.604;2024-03-25T21:46:05;8.43;;;3.28;;
55220;SDS011;41089;51.448;6.604;2024-03-25T21:52:06;10.50;;;2.92;;
55220;SDS011;41089;51.448;6.604;2024-03-25T21:58:06;8.40;;;2.90;;
55220;SDS011;41089;51.448;6.604;2024-03-25T22:04:07;5.85;;;2.50;;
55220;SDS011;41089;51.448;6.604;2024-03-25T22:10:07;7.30;;;2.70;;
55220;SDS011;41089;51.448;6.604;2024-03-25T22:16:08;6.97;;;2.20;;
55220;SDS011;41089;51.448;6.604;2024-03-25T22:22:08;7.80;;;2.70;;
55220;SDS011;41089;51.448;6.604;2024-03-25T22:28:09;7.33;;;3.40;;
55220;SDS011;41089;51.448;6.604;2024-03-25T22:34:09;9.10;;;2.97;;
55220;SDS011;41089;51.448;6.604;2024-03-25T22:40:10;9.23;;;2.70;;
55220;SDS011;41089;51.448;6.604;2024-03-25T22:46:12;6.40;;;2.47;;
55220;SDS011;41089;51.448;6.604;2024-03-25T22:52:12;10.13;;;2.85;;
55220;SDS011;41089;51.448;6.604;2024-03-25T22:58:13;4.85;;;2.72;;
55220;SDS011;41089;51.448;6.604;2024-03-25T23:04:14;7.65;;;2.60;;
55220;SDS011;41089;51.448;6.604;2024-03-25T23:10:15;3.30;;;2.25;;
55220;SDS011;41089;51.448;6.604;2024-03-25T23:16:16;8.50;;;2.40;;
55220;SDS011;41089;51.448;6.604;2024-03-25T23:22:17;5.63;;;2.20;;
55220;SDS011;41089;51.448;6.604;2024-03-25T23:28:17;5.63;;;2.03;;
55220;SDS011;41089;51.448;6.604;2024-03-25T23:34:18;10.93;;;2.55;;
55220;SDS011;41089;51.448;6.604;2024-03-25T23:40:18;5.37;;;2.20;;
55220;SDS011;41089;51.448;6.604;2024-03-25T23:46:20;8.87;;;2.20;;
55220;SDS011;41089;51.448;6.604;2024-03-25T23:52:25;6.95;;;3.28;;
55220;SDS011;41089;51.448;6.604;2024-03-25T23:58:25;6.45;;;2.50;;
